sensor_id;sensor_type;location;lat;lon;timestamp;P1;P2;P0
68841;PMS5003;55849;48.482;2.332;2023-04-16T05:22:53;14.00;12.00;9.00
68841;PMS5003;55849;48.482;2.332;2023-04-16T05:25:55;11.50;11.50;9.00
68841;PMS5003;55849;48.482;2.332;2023-04-16T05:28:56;14.00;12.50;6.75
68841;PMS5003;55849;48.482;2.332;2023-04-16T05:31:58;17.50;11.50;9.00
68841;PMS5003;55849;48.482;2.332;2023-04-16T05:35:00;11.25;11.25;7.00
68841;PMS5003;55849;48.482;2.332;2023-04-16T05:38:03;14.00;9.25;7.00
68841;PMS5003;55849;48.482;2.332;2023-04-16T05:41:05;5.00;5.00;3.75
68841;PMS5003;55849;48.482;2.332;2023-04-16T05:44:07;7.00;4.50;3.25
68841;PMS5003;55849;48.482;2.332;2023-04-16T05:47:08;7.00;4.00;3.00
68841;PMS5003;55849;48.482;2.332;2023-04-16T05:50:10;4.75;3.75;2.00
68841;PMS5003;55849;48.482;2.332;2023-04-16T05:53:13;11.50;10.75;7.50
68841;PMS5003;55849;48.482;2.332;2023-04-16T05:56:15;14.00;12.75;7.00
68841;PMS5003;55849;48.482;2.332;2023-04-16T05:59:17;13.00;13.00;9.00
68841;PMS5003;55849;48.482;2.332;2023-04-16T06:02:18;5.75;5.50;3.75
68841;PMS5003;55849;48.482;2.332;2023-04-16T06:05:20;19.25;16.25;12.50
68841;PMS5003;55849;48.482;2.332;2023-04-16T06:08:23;14.25;13.00;10.00
68841;PMS5003;55849;48.482;2.332;2023-04-16T06:11:24;15.75;13.50;8.50
68841;PMS5003;55849;48.482;2.332;2023-04-16T06:14:26;18.50;14.50;9.00
68841;PMS5003;55849;48.482;2.332;2023-04-16T06:17:28;27.50;21.25;15.00
68841;PMS5003;55849;48.482;2.332;2023-04-16T06:20:29;13.25;8.00;6.75
68841;PMS5003;55849;48.482;2.332;2023-04-16T06:23:33;10.50;10.50;8.50
68841;PMS5003;55849;48.482;2.332;2023-04-16T06:26:34;17.25;15.25;8.00
68841;PMS5003;55849;48.482;2.332;2023-04-16T06:29:36;13.50;10.00;7.50
68841;PMS5003;55849;48.482;2.332;2023-04-16T06:32:37;12.75;10.00;6.50
68841;PMS5003;55849;48.482;2.332;2023-04-16T06:35:39;6.75;6.75;5.00
68841;PMS5003;55849;48.482;2.332;2023-04-16T06:38:42;12.75;11.50;7.50
68841;PMS5003;55849;48.482;2.332;2023-04-16T06:41:44;18.00;10.00;6.00
68841;PMS5003;55849;48.482;2.332;2023-04-16T06:44:45;11.75;9.50;6.00
68841;PMS5003;55849;48.482;2.332;2023-04-16T06:47:47;14.50;11.50;7.00
68841;PMS5003;55849;48.482;2.332;2023-04-16T06:50:50;16.50;14.00;8.50
68841;PMS5003;55849;48.482;2.332;2023-04-16T06:53:53;10.25;9.75;6.25
68841;PMS5003;55849;48.482;2.332;2023-04-16T06:56:54;11.50;9.00;4.50
68841;PMS5003;55849;48.482;2.332;2023-04-16T06:59:56;12.25;9.50;6.00
68841;PMS5003;55849;48.482;2.332;2023-04-16T07:02:59;14.50;9.75;7.50
68841;PMS5003;55849;48.482;2.332;2023-04-16T07:06:03;17.00;11.50;7.50
68841;PMS5003;55849;48.482;2.332;2023-04-16T07:09:06;11.00;10.00;6.25
68841;PMS5003;55849;48.482;2.332;2023-04-16T07:12:07;19.00;19.00;15.00
68841;PMS5003;55849;48.482;2.332;2023-04-16T07:15:10;26.50;26.50;18.50
68841;PMS5003;55849;48.482;2.332;2023-04-16T07:18:12;20.75;18.75;12.00
68841;PMS5003;55849;48.482;2.332;2023-04-16T07:21:13;14.00;12.00;7.50
68841;PMS5003;55849;48.482;2.332;2023-04-16T07:24:16;13.75;12.00;6.75
68841;PMS5003;55849;48.482;2.332;2023-04-16T07:27:18;13.75;11.50;7.50
68841;PMS5003;55849;48.482;2.332;2023-04-16T07:30:20;17.75;14.75;9.75
68841;PMS5003;55849;48.482;2.332;2023-04-16T07:33:21;23.50;21.25;13.50
68841;PMS5003;55849;48.482;2.332;2023-04-16T07:36:24;26.75;19.00;12.25
68841;PMS5003;55849;48.482;2.332;2023-04-16T07:39:27;18.25;13.50;9.00
68841;PMS5003;55849;48.482;2.332;2023-04-16T07:42:29;15.50;15.50;10.00
68841;PMS5003;55849;48.482;2.332;2023-04-16T07:45:31;22.00;15.75;10.00
68841;PMS5003;55849;48.482;2.332;2023-04-16T07:48:32;15.25;13.00;8.50
68841;PMS5003;55849;48.482;2.332;2023-04-16T07:51:34;15.75;12.75;9.00
68841;PMS5003;55849;48.482;2.332;2023-04-16T07:54:37;17.00;12.75;10.00
68841;PMS5003;55849;48.482;2.332;2023-04-16T07:57:39;20.75;17.00;11.00
68841;PMS5003;55849;48.482;2.332;2023-04-16T08:00:40;20.75;14.00;9.50
68841;PMS5003;55849;48.482;2.332;2023-04-16T08:03:42;16.00;13.25;6.75
68841;PMS5003;55849;48.482;2.332;2023-04-16T08:06:44;16.50;11.25;9.50
68841;PMS5003;55849;48.482;2.332;2023-04-16T08:09:47;17.25;14.75;10.00
68841;PMS5003;55849;48.482;2.332;2023-04-16T08:12:50;12.75;10.00;6.75
68841;PMS5003;55849;48.482;2.332;2023-04-16T08:15:52;16.50;5.25;3.25
68841;PMS5003;55849;48.482;2.332;2023-04-16T08:18:54;18.50;14.00;10.00
68841;PMS5003;55849;48.482;2.332;2023-04-16T08:21:55;10.50;9.50;6.00
68841;PMS5003;55849;48.482;2.332;2023-04-16T08:24:58;12.50;10.50;7.00
68841;PMS5003;55849;48.482;2.332;2023-04-16T08:28:00;6.25;6.25;1.50
68841;PMS5003;55849;48.482;2.332;2023-04-16T08:31:01;11.00;10.00;8.00
68841;PMS5003;55849;48.482;2.332;2023-04-16T08:34:03;18.00;15.75;10.00
68841;PMS5003;55849;48.482;2.332;2023-04-16T08:37:05;13.50;13.50;9.50
68841;PMS5003;55849;48.482;2.332;2023-04-16T08:40:08;12.50;10.00;6.50
68841;PMS5003;55849;48.482;2.332;2023-04-16T08:43:10;16.50;6.00;3.00
68841;PMS5003;55849;48.482;2.332;2023-04-16T08:46:13;18.75;16.50;9.25
68841;PMS5003;55849;48.482;2.332;2023-04-16T08:49:16;16.00;15.25;7.00
68841;PMS5003;55849;48.482;2.332;2023-04-16T08:52:18;18.50;15.50;10.50
68841;PMS5003;55849;48.482;2.332;2023-04-16T08:55:22;63.50;52.75;35.00
68841;PMS5003;55849;48.482;2.332;2023-04-16T08:58:29;48.75;40.75;27.50
68841;PMS5003;55849;48.482;2.332;2023-04-16T09:01:34;24.25;21.50;15.00
68841;PMS5003;55849;48.482;2.332;2023-04-16T09:04:38;15.75;14.00;9.00
68841;PMS5003;55849;48.482;2.332;2023-04-16T09:07:41;13.50;13.00;7.50
68841;PMS5003;55849;48.482;2.332;2023-04-16T09:10:45;18.25;11.50;7.00
68841;PMS5003;55849;48.482;2.332;2023-04-16T09:13:48;39.25;32.50;21.25
68841;PMS5003;55849;48.482;2.332;2023-04-16T09:16:50;18.00;10.00;6.75
68841;PMS5003;55849;48.482;2.332;2023-04-16T09:19:54;23.00;13.50;9.75
68841;PMS5003;55849;48.482;2.332;2023-04-16T09:22:56;14.00;11.00;6.00
68841;PMS5003;55849;48.482;2.332;2023-04-16T09:25:59;14.75;12.00;6.50
68841;PMS5003;55849;48.482;2.332;2023-04-16T09:29:00;38.00;28.75;19.25
68841;PMS5003;55849;48.482;2.332;2023-04-16T09:32:03;20.00;18.00;13.50
68841;PMS5003;55849;48.482;2.332;2023-04-16T09:35:06;24.25;18.75;13.00
68841;PMS5003;55849;48.482;2.332;2023-04-16T09:38:08;26.25;24.00;15.00
68841;PMS5003;55849;48.482;2.332;2023-04-16T09:41:11;9.75;9.00;6.00
68841;PMS5003;55849;48.482;2.332;2023-04-16T09:44:15;13.00;11.00;7.50
68841;PMS5003;55849;48.482;2.332;2023-04-16T09:47:17;6.00;6.00;3.50
68841;PMS5003;55849;48.482;2.332;2023-04-16T09:50:18;9.75;9.50;6.00
68841;PMS5003;55849;48.482;2.332;2023-04-16T09:53:22;18.00;10.00;7.00
68841;PMS5003;55849;48.482;2.332;2023-04-16T09:56:26;17.25;12.00;6.50
68841;PMS5003;55849;48.482;2.332;2023-04-16T09:59:29;19.00;13.50;9.00
68841;PMS5003;55849;48.482;2.332;2023-04-16T10:02:33;15.00;15.00;9.00
68841;PMS5003;55849;48.482;2.332;2023-04-16T10:05:37;18.00;18.00;10.50
68841;PMS5003;55849;48.482;2.332;2023-04-16T10:08:41;9.50;9.25;6.50
68841;PMS5003;55849;48.482;2.332;2023-04-16T10:11:45;10.50;10.00;6.25
68841;PMS5003;55849;48.482;2.332;2023-04-16T10:14:48;14.50;10.50;8.00
68841;PMS5003;55849;48.482;2.332;2023-04-16T10:17:50;13.00;9.00;6.50
68841;PMS5003;55849;48.482;2.332;2023-04-16T10:20:54;36.25;23.50;14.00
68841;PMS5003;55849;48.482;2.332;2023-04-16T10:23:55;16.25;14.50;8.50
68841;PMS5003;55849;48.482;2.332;2023-04-16T10:26:58;15.25;12.25;7.00
68841;PMS5003;55849;48.482;2.332;2023-04-16T10:30:00;11.50;6.75;5.00
68841;PMS5003;55849;48.482;2.332;2023-04-16T10:33:03;14.25;13.25;9.25
68841;PMS5003;55849;48.482;2.332;2023-04-16T10:36:06;51.75;39.75;26.25
68841;PMS5003;55849;48.482;2.332;2023-04-16T10:39:09;40.25;38.75;26.50
68841;PMS5003;55849;48.482;2.332;2023-04-16T10:42:14;13.00;13.00;10.00
68841;PMS5003;55849;48.482;2.332;2023-04-16T10:45:16;15.50;9.25;6.00
68841;PMS5003;55849;48.482;2.332;2023-04-16T10:48:18;14.50;11.00;5.00
68841;PMS5003;55849;48.482;2.332;2023-04-16T10:51:26;16.50;10.00;7.25
68841;PMS5003;55849;48.482;2.332;2023-04-16T10:54:30;69.50;48.00;30.50
68841;PMS5003;55849;48.482;2.332;2023-04-16T10:57:34;20.25;17.00;11.75
68841;PMS5003;55849;48.482;2.332;2023-04-16T11:00:47;50.00;39.25;24.25
68841;PMS5003;55849;48.482;2.332;2023-04-16T11:03:49;31.50;31.50;22.00
68841;PMS5003;55849;48.482;2.332;2023-04-16T11:10:20;16.00;14.00;9.00
68841;PMS5003;55849;48.482;2.332;2023-04-16T11:13:22;12.00;12.00;8.25
68841;PMS5003;55849;48.482;2.332;2023-04-16T11:16:24;14.50;11.50;7.50
68841;PMS5003;55849;48.482;2.332;2023-04-16T11:19:27;14.25;12.00;8.00
68841;PMS5003;55849;48.482;2.332;2023-04-16T11:22:28;13.25;12.00;6.00
68841;PMS5003;55849;48.482;2.332;2023-04-16T11:25:30;13.50;10.25;8.00
68841;PMS5003;55849;48.482;2.332;2023-04-16T11:28:34;16.50;11.50;7.50
68841;PMS5003;55849;48.482;2.332;2023-04-16T11:31:36;11.50;11.00;7.50
68841;PMS5003;55849;48.482;2.332;2023-04-16T11:34:42;15.00;12.50;9.00
68841;PMS5003;55849;48.482;2.332;2023-04-16T11:37:45;39.25;34.00;22.50
68841;PMS5003;55849;48.482;2.332;2023-04-16T11:40:48;19.25;16.75;10.00
68841;PMS5003;55849;48.482;2.332;2023-04-16T11:43:51;11.25;8.75;6.25
68841;PMS5003;55849;48.482;2.332;2023-04-16T11:46:53;13.50;12.25;8.25
68841;PMS5003;55849;48.482;2.332;2023-04-16T11:49:55;24.50;19.25;11.50
68841;PMS5003;55849;48.482;2.332;2023-04-16T11:53:02;24.50;19.75;13.00
68841;PMS5003;55849;48.482;2.332;2023-04-16T11:56:05;22.50;19.00;12.75
68841;PMS5003;55849;48.482;2.332;2023-04-16T11:59:12;28.25;24.75;14.75
68841;PMS5003;55849;48.482;2.332;2023-04-16T12:02:14;10.50;8.75;7.00
68841;PMS5003;55849;48.482;2.332;2023-04-16T12:05:25;9.00;9.00;7.00
68841;PMS5003;55849;48.482;2.332;2023-04-16T12:08:30;15.00;7.75;6.25
68841;PMS5003;55849;48.482;2.332;2023-04-16T12:11:38;12.50;11.50;7.25
68841;PMS5003;55849;48.482;2.332;2023-04-16T12:14:48;26.25;25.50;17.00
68841;PMS5003;55849;48.482;2.332;2023-04-16T12:17:51;9.00;8.00;5.75
68841;PMS5003;55849;48.482;2.332;2023-04-16T12:21:06;10.75;10.00;7.00
68841;PMS5003;55849;48.482;2.332;2023-04-16T12:24:08;10.75;7.25;4.25
68841;PMS5003;55849;48.482;2.332;2023-04-16T12:27:12;8.25;6.00;4.50
68841;PMS5003;55849;48.482;2.332;2023-04-16T12:30:17;7.00;6.00;5.00
68841;PMS5003;55849;48.482;2.332;2023-04-16T12:33:19;23.25;21.50;14.25
68841;PMS5003;55849;48.482;2.332;2023-04-16T12:36:21;8.75;7.25;5.00
68841;PMS5003;55849;48.482;2.332;2023-04-16T12:39:23;51.75;42.00;28.00
68841;PMS5003;55849;48.482;2.332;2023-04-16T12:42:25;6.50;5.25;4.00
68841;PMS5003;55849;48.482;2.332;2023-04-16T12:45:28;6.25;5.50;3.75
68841;PMS5003;55849;48.482;2.332;2023-04-16T12:48:31;6.00;5.25;3.75
68841;PMS5003;55849;48.482;2.332;2023-04-16T12:51:32;4.50;4.50;3.00
68841;PMS5003;55849;48.482;2.332;2023-04-16T12:54:35;5.00;4.00;2.00
68841;PMS5003;55849;48.482;2.332;2023-04-16T12:57:37;8.75;4.00;3.00
68841;PMS5003;55849;48.482;2.332;2023-04-16T13:00:40;4.25;3.50;2.75
68841;PMS5003;55849;48.482;2.332;2023-04-16T13:03:41;4.25;4.25;4.00
68841;PMS5003;55849;48.482;2.332;2023-04-16T13:06:43;5.50;5.25;3.25
68841;PMS5003;55849;48.482;2.332;2023-04-16T13:09:45;5.00;4.00;1.75
68841;PMS5003;55849;48.482;2.332;2023-04-16T13:12:47;9.50;8.50;6.00
68841;PMS5003;55849;48.482;2.332;2023-04-16T13:15:50;4.00;4.00;2.75
68841;PMS5003;55849;48.482;2.332;2023-04-16T13:18:52;4.50;2.75;2.50
68841;PMS5003;55849;48.482;2.332;2023-04-16T13:21:53;6.25;6.25;4.00
68841;PMS5003;55849;48.482;2.332;2023-04-16T13:24:55;2.50;2.50;1.75
68841;PMS5003;55849;48.482;2.332;2023-04-16T13:27:57;2.75;2.75;1.75
68841;PMS5003;55849;48.482;2.332;2023-04-16T13:31:00;4.75;4.50;3.50
68841;PMS5003;55849;48.482;2.332;2023-04-16T13:34:01;4.50;4.50;3.00
68841;PMS5003;55849;48.482;2.332;2023-04-16T13:37:03;3.25;3.00;2.00
68841;PMS5003;55849;48.482;2.332;2023-04-16T13:40:06;4.75;3.25;2.00
68841;PMS5003;55849;48.482;2.332;2023-04-16T13:43:08;7.25;4.00;3.00
68841;PMS5003;55849;48.482;2.332;2023-04-16T13:46:12;9.00;7.50;4.50
68841;PMS5003;55849;48.482;2.332;2023-04-16T13:49:13;3.50;2.00;1.50
68841;PMS5003;55849;48.482;2.332;2023-04-16T13:52:15;4.00;4.00;3.00
68841;PMS5003;55849;48.482;2.332;2023-04-16T13:55:16;3.00;2.00;1.75
68841;PMS5003;55849;48.482;2.332;2023-04-16T13:58:19;5.75;4.00;3.00
68841;PMS5003;55849;48.482;2.332;2023-04-16T14:01:22;6.75;4.25;3.00
68841;PMS5003;55849;48.482;2.332;2023-04-16T14:04:23;4.75;3.00;2.00
68841;PMS5003;55849;48.482;2.332;2023-04-16T14:07:25;4.00;2.50;1.00
68841;PMS5003;55849;48.482;2.332;2023-04-16T14:10:27;0.75;0.75;0.00
68841;PMS5003;55849;48.482;2.332;2023-04-16T14:13:28;5.00;5.00;3.75
68841;PMS5003;55849;48.482;2.332;2023-04-16T14:16:31;6.00;4.25;3.00
68841;PMS5003;55849;48.482;2.332;2023-04-16T14:19:33;3.00;3.00;2.00
68841;PMS5003;55849;48.482;2.332;2023-04-16T14:22:35;4.00;4.00;2.00
68841;PMS5003;55849;48.482;2.332;2023-04-16T14:25:36;2.50;2.50;2.00
68841;PMS5003;55849;48.482;2.332;2023-04-16T14:28:38;3.25;2.50;2.00
68841;PMS5003;55849;48.482;2.332;2023-04-16T14:31:41;3.75;3.75;1.75
68841;PMS5003;55849;48.482;2.332;2023-04-16T14:34:43;4.00;2.00;2.00
68841;PMS5003;55849;48.482;2.332;2023-04-16T14:37:44;2.00;2.00;0.00
68841;PMS5003;55849;48.482;2.332;2023-04-16T14:40:46;4.00;3.00;2.75
68841;PMS5003;55849;48.482;2.332;2023-04-16T14:43:48;3.25;3.00;1.75
68841;PMS5003;55849;48.482;2.332;2023-04-16T14:46:51;2.75;2.00;2.00
68841;PMS5003;55849;48.482;2.332;2023-04-16T14:49:54;1.50;1.50;1.25
68841;PMS5003;55849;48.482;2.332;2023-04-16T14:52:55;3.00;3.00;2.25
68841;PMS5003;55849;48.482;2.332;2023-04-16T14:55:57;3.00;3.00;2.00
68841;PMS5003;55849;48.482;2.332;2023-04-16T14:58:59;3.00;2.00;2.00
68841;PMS5003;55849;48.482;2.332;2023-04-16T15:02:02;3.50;3.50;3.00
68841;PMS5003;55849;48.482;2.332;2023-04-16T15:05:04;5.75;4.00;2.00
68841;PMS5003;55849;48.482;2.332;2023-04-16T15:08:06;3.00;3.00;1.00
68841;PMS5003;55849;48.482;2.332;2023-04-16T15:11:08;3.00;3.00;2.25
68841;PMS5003;55849;48.482;2.332;2023-04-16T15:14:10;2.50;2.00;1.00
68841;PMS5003;55849;48.482;2.332;2023-04-16T15:17:13;4.75;4.75;2.75
68841;PMS5003;55849;48.482;2.332;2023-04-16T15:20:14;3.75;3.75;2.75
68841;PMS5003;55849;48.482;2.332;2023-04-16T15:23:16;2.50;2.50;2.00
68841;PMS5003;55849;48.482;2.332;2023-04-16T15:26:17;2.50;2.50;0.25
68841;PMS5003;55849;48.482;2.332;2023-04-16T15:29:19;4.00;3.50;2.00
68841;PMS5003;55849;48.482;2.332;2023-04-16T15:32:22;2.00;2.00;2.00
68841;PMS5003;55849;48.482;2.332;2023-04-16T15:35:24;2.75;2.75;2.00
68841;PMS5003;55849;48.482;2.332;2023-04-16T15:38:25;4.00;4.00;2.50
68841;PMS5003;55849;48.482;2.332;2023-04-16T15:41:28;2.25;2.25;2.00
68841;PMS5003;55849;48.482;2.332;2023-04-16T15:44:30;2.50;2.00;2.00
68841;PMS5003;55849;48.482;2.332;2023-04-16T15:47:34;4.00;4.00;2.75
68841;PMS5003;55849;48.482;2.332;2023-04-16T15:50:36;4.00;4.00;3.00
68841;PMS5003;55849;48.482;2.332;2023-04-16T15:53:37;4.00;4.00;3.00
68841;PMS5003;55849;48.482;2.332;2023-04-16T15:56:39;4.00;4.00;3.00
68841;PMS5003;55849;48.482;2.332;2023-04-16T15:59:41;6.00;3.75;3.00
68841;PMS5003;55849;48.482;2.332;2023-04-16T16:02:44;3.25;3.25;2.00
68841;PMS5003;55849;48.482;2.332;2023-04-16T16:05:47;3.50;3.50;3.00
68841;PMS5003;55849;48.482;2.332;2023-04-16T16:08:48;4.00;3.75;2.00
68841;PMS5003;55849;48.482;2.332;2023-04-16T16:11:50;5.25;3.00;3.00
68841;PMS5003;55849;48.482;2.332;2023-04-16T16:14:53;5.00;5.00;4.00
68841;PMS5003;55849;48.482;2.332;2023-04-16T16:17:56;3.50;3.50;2.25
68841;PMS5003;55849;48.482;2.332;2023-04-16T16:20:58;3.00;3.00;2.50
68841;PMS5003;55849;48.482;2.332;2023-04-16T16:23:59;5.00;5.00;3.00
68841;PMS5003;55849;48.482;2.332;2023-04-16T16:27:01;2.00;2.00;2.00
68841;PMS5003;55849;48.482;2.332;2023-04-16T16:30:03;2.00;1.75;1.50
68841;PMS5003;55849;48.482;2.332;2023-04-16T16:33:07;3.25;1.00;0.00
68841;PMS5003;55849;48.482;2.332;2023-04-16T16:36:09;3.25;2.75;2.00
68841;PMS5003;55849;48.482;2.332;2023-04-16T16:39:12;2.75;2.00;1.00
68841;PMS5003;55849;48.482;2.332;2023-04-16T16:42:13;3.25;3.00;2.00
68841;PMS5003;55849;48.482;2.332;2023-04-16T16:45:17;3.00;3.00;2.00
68841;PMS5003;55849;48.482;2.332;2023-04-16T16:48:21;3.00;3.00;2.00
68841;PMS5003;55849;48.482;2.332;2023-04-16T16:51:22;2.25;2.25;2.00
68841;PMS5003;55849;48.482;2.332;2023-04-16T16:54:25;3.00;3.00;2.00
68841;PMS5003;55849;48.482;2.332;2023-04-16T16:57:27;3.50;2.00;1.25
68841;PMS5003;55849;48.482;2.332;2023-04-16T17:00:28;2.00;2.00;1.00
68841;PMS5003;55849;48.482;2.332;2023-04-16T17:03:31;2.00;2.00;1.00
68841;PMS5003;55849;48.482;2.332;2023-04-16T17:06:33;1.00;1.00;1.00
68841;PMS5003;55849;48.482;2.332;2023-04-16T17:09:35;2.00;2.00;1.00
68841;PMS5003;55849;48.482;2.332;2023-04-16T17:12:37;1.00;1.00;0.75
68841;PMS5003;55849;48.482;2.332;2023-04-16T17:15:39;1.00;1.00;1.00
68841;PMS5003;55849;48.482;2.332;2023-04-16T17:18:42;2.00;2.00;1.25
68841;PMS5003;55849;48.482;2.332;2023-04-16T17:21:44;2.25;2.25;2.00
68841;PMS5003;55849;48.482;2.332;2023-04-16T17:24:46;3.25;1.75;1.00
68841;PMS5003;55849;48.482;2.332;2023-04-16T17:27:48;2.00;2.00;1.25
68841;PMS5003;55849;48.482;2.332;2023-04-16T17:30:49;6.00;4.00;3.00
68841;PMS5003;55849;48.482;2.332;2023-04-16T17:33:53;2.50;2.50;2.00
68841;PMS5003;55849;48.482;2.332;2023-04-16T17:36:54;2.00;2.00;1.75
68841;PMS5003;55849;48.482;2.332;2023-04-16T17:39:56;2.00;2.00;1.00
68841;PMS5003;55849;48.482;2.332;2023-04-16T17:42:57;6.00;2.75;2.00
68841;PMS5003;55849;48.482;2.332;2023-04-16T17:45:59;2.00;2.00;2.00
68841;PMS5003;55849;48.482;2.332;2023-04-16T17:49:02;2.25;2.00;1.00
68841;PMS5003;55849;48.482;2.332;2023-04-16T17:52:04;2.75;1.00;1.00
68841;PMS5003;55849;48.482;2.332;2023-04-16T17:55:05;2.00;2.00;1.50
68841;PMS5003;55849;48.482;2.332;2023-04-16T17:58:07;2.00;2.00;2.00
68841;PMS5003;55849;48.482;2.332;2023-04-16T18:01:09;4.00;2.00;2.00
68841;PMS5003;55849;48.482;2.332;2023-04-16T18:04:12;2.50;2.50;2.00
68841;PMS5003;55849;48.482;2.332;2023-04-16T18:07:14;2.50;1.75;1.75
68841;PMS5003;55849;48.482;2.332;2023-04-16T18:10:15;3.00;2.25;1.50
68841;PMS5003;55849;48.482;2.332;2023-04-16T18:13:17;7.25;6.00;4.00
68841;PMS5003;55849;48.482;2.332;2023-04-16T18:16:18;2.75;2.75;1.50
68841;PMS5003;55849;48.482;2.332;2023-04-16T18:19:22;9.50;7.50;4.00
68841;PMS5003;55849;48.482;2.332;2023-04-16T18:22:24;7.50;4.00;2.25
68841;PMS5003;55849;48.482;2.332;2023-04-16T18:25:27;6.50;4.00;2.00
68841;PMS5003;55849;48.482;2.332;2023-04-16T18:28:28;5.25;3.50;2.00
68841;PMS5003;55849;48.482;2.332;2023-04-16T18:31:30;11.25;7.50;4.00
68841;PMS5003;55849;48.482;2.332;2023-04-16T18:34:33;4.00;4.00;2.75
68841;PMS5003;55849;48.482;2.332;2023-04-16T18:37:35;7.75;5.00;4.00
68841;PMS5003;55849;48.482;2.332;2023-04-16T18:40:37;6.50;6.50;3.75
68841;PMS5003;55849;48.482;2.332;2023-04-16T18:43:38;9.25;5.50;3.75
68841;PMS5003;55849;48.482;2.332;2023-04-16T18:46:40;7.25;5.50;4.00
68841;PMS5003;55849;48.482;2.332;2023-04-16T18:49:43;7.00;6.75;4.50
68841;PMS5003;55849;48.482;2.332;2023-04-16T18:52:44;12.00;9.25;6.50
68841;PMS5003;55849;48.482;2.332;2023-04-16T18:55:46;15.25;13.50;9.50
68841;PMS5003;55849;48.482;2.332;2023-04-16T18:58:53;16.50;14.25;9.75
68841;PMS5003;55849;48.482;2.332;2023-04-16T19:01:54;13.25;11.75;8.50
68841;PMS5003;55849;48.482;2.332;2023-04-16T19:04:57;14.50;11.50;8.25
68841;PMS5003;55849;48.482;2.332;2023-04-16T19:07:59;11.25;11.25;7.50
68841;PMS5003;55849;48.482;2.332;2023-04-16T19:11:00;12.75;11.00;8.25
68841;PMS5003;55849;48.482;2.332;2023-04-16T19:14:02;10.50;10.25;7.50
68841;PMS5003;55849;48.482;2.332;2023-04-16T19:17:04;12.00;11.00;7.75
68841;PMS5003;55849;48.482;2.332;2023-04-16T19:20:08;14.50;12.00;9.00
68841;PMS5003;55849;48.482;2.332;2023-04-16T19:23:10;13.25;13.25;8.00
68841;PMS5003;55849;48.482;2.332;2023-04-16T19:26:12;17.75;15.25;12.00
68841;PMS5003;55849;48.482;2.332;2023-04-16T19:29:14;17.75;15.50;10.25
68841;PMS5003;55849;48.482;2.332;2023-04-16T19:32:17;17.75;16.25;11.00
68841;PMS5003;55849;48.482;2.332;2023-04-16T19:35:20;14.25;12.50;10.50
68841;PMS5003;55849;48.482;2.332;2023-04-16T19:38:21;19.00;16.00;10.75
68841;PMS5003;55849;48.482;2.332;2023-04-16T19:41:23;13.00;9.50;6.75
68841;PMS5003;55849;48.482;2.332;2023-04-16T19:44:24;10.00;10.00;7.00
68841;PMS5003;55849;48.482;2.332;2023-04-16T19:47:26;8.00;8.00;5.00
68841;PMS5003;55849;48.482;2.332;2023-04-16T19:50:29;10.50;7.50;5.50
68841;PMS5003;55849;48.482;2.332;2023-04-16T19:53:31;12.75;10.75;7.25
68841;PMS5003;55849;48.482;2.332;2023-04-16T19:56:33;8.25;6.00;3.50
68841;PMS5003;55849;48.482;2.332;2023-04-16T19:59:35;8.00;6.50;4.75
68841;PMS5003;55849;48.482;2.332;2023-04-16T20:02:37;11.00;9.50;6.00
68841;PMS5003;55849;48.482;2.332;2023-04-16T20:05:40;21.50;17.25;11.25
68841;PMS5003;55849;48.482;2.332;2023-04-16T20:08:42;12.00;9.25;6.00
68841;PMS5003;55849;48.482;2.332;2023-04-16T20:11:44;9.25;8.50;5.00
68841;PMS5003;55849;48.482;2.332;2023-04-16T20:14:46;5.25;4.00;3.00
68841;PMS5003;55849;48.482;2.332;2023-04-16T20:17:48;5.00;5.00;3.00
68841;PMS5003;55849;48.482;2.332;2023-04-16T20:20:51;10.75;10.75;7.75
68841;PMS5003;55849;48.482;2.332;2023-04-16T20:23:52;9.75;8.00;6.25
68841;PMS5003;55849;48.482;2.332;2023-04-16T20:26:54;7.50;7.50;6.00
68841;PMS5003;55849;48.482;2.332;2023-04-16T20:29:56;10.00;10.00;9.00
68841;PMS5003;55849;48.482;2.332;2023-04-16T20:32:58;10.75;10.00;7.00
68841;PMS5003;55849;48.482;2.332;2023-04-16T20:36:01;8.50;5.75;4.00
68841;PMS5003;55849;48.482;2.332;2023-04-16T20:39:03;6.00;6.00;4.75
68841;PMS5003;55849;48.482;2.332;2023-04-16T20:42:06;5.50;4.50;3.00
68841;PMS5003;55849;48.482;2.332;2023-04-16T20:45:09;7.00;5.25;3.75
68841;PMS5003;55849;48.482;2.332;2023-04-16T20:48:11;6.75;6.75;4.00
68841;PMS5003;55849;48.482;2.332;2023-04-16T20:51:14;5.75;5.75;4.75
68841;PMS5003;55849;48.482;2.332;2023-04-16T20:54:16;4.00;3.75;3.00
68841;PMS5003;55849;48.482;2.332;2023-04-16T20:57:18;3.25;3.25;3.00
68841;PMS5003;55849;48.482;2.332;2023-04-16T21:00:19;4.75;4.75;3.00
68841;PMS5003;55849;48.482;2.332;2023-04-16T21:03:21;4.75;3.50;3.00
68841;PMS5003;55849;48.482;2.332;2023-04-16T21:06:24;5.25;4.00;3.00
68841;PMS5003;55849;48.482;2.332;2023-04-16T21:09:26;3.00;3.00;3.00
68841;PMS5003;55849;48.482;2.332;2023-04-16T21:12:27;5.50;5.50;4.00
68841;PMS5003;55849;48.482;2.332;2023-04-16T21:15:29;3.00;3.00;3.00
68841;PMS5003;55849;48.482;2.332;2023-04-16T21:18:31;4.00;4.00;4.00
68841;PMS5003;55849;48.482;2.332;2023-04-16T21:21:35;4.00;4.00;3.50
68841;PMS5003;55849;48.482;2.332;2023-04-16T21:24:37;4.00;4.00;3.00
68841;PMS5003;55849;48.482;2.332;2023-04-16T21:27:38;7.50;5.25;4.00
68841;PMS5003;55849;48.482;2.332;2023-04-16T21:30:40;3.50;3.00;2.00
68841;PMS5003;55849;48.482;2.332;2023-04-16T21:33:42;7.25;5.75;4.75
68841;PMS5003;55849;48.482;2.332;2023-04-16T21:36:45;4.25;4.00;3.00
68841;PMS5003;55849;48.482;2.332;2023-04-16T21:39:46;5.00;5.00;4.00
68841;PMS5003;55849;48.482;2.332;2023-04-16T21:42:48;5.25;4.75;4.00
68841;PMS5003;55849;48.482;2.332;2023-04-16T21:45:50;6.00;4.25;3.50
68841;PMS5003;55849;48.482;2.332;2023-04-16T21:48:52;6.25;5.00;3.50
68841;PMS5003;55849;48.482;2.332;2023-04-16T21:51:55;6.75;5.75;4.00
68841;PMS5003;55849;48.482;2.332;2023-04-16T21:54:58;4.75;4.75;4.00
68841;PMS5003;55849;48.482;2.332;2023-04-16T21:58:00;6.00;6.00;5.00
68841;PMS5003;55849;48.482;2.332;2023-04-16T22:01:01;8.75;6.50;5.00
68841;PMS5003;55849;48.482;2.332;2023-04-16T22:04:03;13.50;10.50;7.00
68841;PMS5003;55849;48.482;2.332;2023-04-16T22:07:07;9.75;9.50;6.00
68841;PMS5003;55849;48.482;2.332;2023-04-16T22:10:10;10.00;10.00;6.00
68841;PMS5003;55849;48.482;2.332;2023-04-16T22:13:12;10.50;10.25;6.50
68841;PMS5003;55849;48.482;2.332;2023-04-16T22:16:16;18.00;12.50;8.75
68841;PMS5003;55849;48.482;2.332;2023-04-16T22:19:18;10.00;8.00;6.00
68841;PMS5003;55849;48.482;2.332;2023-04-16T22:22:21;10.25;10.25;8.25
68841;PMS5003;55849;48.482;2.332;2023-04-16T22:25:23;12.00;11.00;7.75
68841;PMS5003;55849;48.482;2.332;2023-04-16T22:28:25;12.25;10.50;8.00
68841;PMS5003;55849;48.482;2.332;2023-04-16T22:31:26;11.25;11.25;8.00
68841;PMS5003;55849;48.482;2.332;2023-04-16T22:34:28;10.50;10.50;7.00
68841;PMS5003;55849;48.482;2.332;2023-04-16T22:37:31;13.75;13.00;9.75
68841;PMS5003;55849;48.482;2.332;2023-04-16T22:40:33;18.50;13.75;9.75
68841;PMS5003;55849;48.482;2.332;2023-04-16T22:43:35;14.75;13.00;9.00
68841;PMS5003;55849;48.482;2.332;2023-04-16T22:46:36;16.75;16.50;11.25
68841;PMS5003;55849;48.482;2.332;2023-04-16T22:49:38;21.00;18.00;12.50
68841;PMS5003;55849;48.482;2.332;2023-04-16T22:52:41;18.50;16.00;11.50
68841;PMS5003;55849;48.482;2.332;2023-04-16T22:55:42;18.25;15.50;12.50